Sutter Island, California
Current Conditions -  °F | °C
As of 3:53 PM on Friday 24 Oct 2014 (Local Time) from KSAC Reporting Station
Clear Clear  
Wind Chill: 75°   Ceiling: Unl
Heat Index: 75°   Visibility: 10mi
Dew Point: 53°   Wind: 5mph
Humidity: 46%   Direction: 140°SE
Pressure: 29.87"   Gusts: NA
Location:  38.3168°N, 121.532°W
Report Text: KSAC 242253Z AUTO 14004KT 10SM CLR 24/12 A2987 RMK AO2 SLP114 T02390117 TSNO
Loading
Personal Weather Stations






























Interactive Weather Map
Tropical Storm Tracking
New forecast layout! Learn more

10-Day Weather Forecast

Advertisements
Track Severe Weather on mobile